This is the latest recevied weather packets stored in our database for station/object W4CKA. If no packets are shown the sender has not sent any weather packets the latest 10 day(s).
| Time | Temp. | Humidity | Pressure | Rain* | Wind** | Luminosity | Snow |
|---|---|---|---|---|---|---|---|
| 1788101560 | 26.67° C | 82% | 1065.4 hPa | 0 mm | - | 453 W/m² | - |
| 1788100957 | 26.11° C | 81% | 1065.1 hPa | 0 mm | - | 404 W/m² | - |
| 1788100357 | 26.67° C | 81% | 1065.1 hPa | 0 mm | - | 462 W/m² | - |
| 1788099754 | 27.22° C | 81% | 1065.3 hPa | 0 mm | - | 446 W/m² | - |
| 1788099150 | 26.11° C | 81% | 1065.3 hPa | 0 mm | - | 487 W/m² | - |
| 1788098545 | 26.67° C | 82% | 1065.3 hPa | 0 mm | - | 329 W/m² | - |
| 1788097941 | 27.22° C | 80% | 1065.7 hPa | 0 mm | - | 325 W/m² | - |
| 1788097338 | 26.67° C | 82% | 1065.5 hPa | 0 mm | - | 286 W/m² | - |
| 1788096735 | 25.56° C | 84% | 1065.4 hPa | 0 mm | - | 246 W/m² | - |
| 1788096132 | 25° C | 85% | 1065.5 hPa | 0 mm | - | 165 W/m² | - |
| 1788095531 | 24.44° C | 86% | 1065.3 hPa | 0 mm | - | 153 W/m² | - |
| 1788094926 | 23.89° C | 88% | 1065.4 hPa | 0 mm | - | 202 W/m² | - |
| 1788094327 | 23.89° C | 88% | 1065.2 hPa | 0 mm | - | 164 W/m² | - |
| 1788093726 | 22.22° C | 94% | 1065.2 hPa | 0 mm | - | 154 W/m² | - |
| 1788093125 | 20.56° C | 99% | 1065.4 hPa | 0 mm | - | 108 W/m² | - |
| 1788092522 | 20° C | 99% | 1065 hPa | 0 mm | - | 43 W/m² | - |
| 1788091917 | 20° C | 99% | 1064.8 hPa | 0 mm | - | 38 W/m² | - |
| 1788091315 | 19.44° C | 99% | 1064.8 hPa | 0 mm | - | 34 W/m² | - |
| 1788090712 | 19.44° C | 99% | 1064.6 hPa | 0 mm | - | 27 W/m² | - |
| 1788090108 | 19.44° C | 99% | 1064.7 hPa | 0 mm | - | 22 W/m² | - |
| 1788089504 | 19.44° C | 99% | 1064.5 hPa | 0 mm | - | 16 W/m² | - |
| 1788088902 | 19.44° C | 99% | 1064.5 hPa | 0 mm | - | 10 W/m² | - |
| 1788088299 | 19.44° C | 99% | 1064.3 hPa | 0 mm | - | 4 W/m² | - |
| 1788087695 | 19.44° C | 99% | 1064.2 hPa | 0 mm | - | 0 W/m² | - |
| 1788087091 | 19.44° C | 99% | 1064.2 hPa | 0 mm | - | 0 W/m² | - |
* Rain latest hour (hover to see other rain measurements)
** Current wind speed in m/s (hover to see current wind gust speed)